Hauptseite
METAR-TAF:

METAR-TAF

Flughäfen :

Eureka, Nunavut, Kanada

Breite: 79-59N, Länge: 085-56W, Höhe: 10 m

Beobachtung

Neuester Wetterbericht von vor 1 Stunde und 1 Minuten, um 09:00 UTC
Wind 3 kt aus Nordost
Temperatur -36°C
Luftfeuchtigkeit 66%
Luftdruck 999 hPa
Sichtweite: 24.1 km
Himmel klar
Eisnadeln

METAR: CWEU 250900Z 05003KT 15SM IC SKC M36/M40 A2949 RMK SLP989

Zeit: 04:01 (10:01 UTC)


TAF: fehlend

Wetterbeobachtungen und Prognosen von mehr als 4000 Flughäfen (METAR und TAF Bericht).

Die verfügbaren Stationen werden durch gelbe und rote Markierungen auf der Karte dargestellt.

Führen Sie die Maus auf sie, um den Namen der Station zu sehen.

Darauf klicken, um die Beobachtung von Wetterbeobachtungen und Prognosen zu sehen.

Um die Karte zu ändern : klicken Sie auf den grünen Tasten mit einem schwarzen Kreuz Zum Vergrößern, auf den grünen Button mit einem Gedankenstrich zu verkleinern, oder auf die grünen Pfeile für benachbarte Karten.


METAR-TAF: